sensor_id;sensor_type;location;lat;lon;timestamp;P1;durP1;ratioP1;P2;durP2;ratioP2
71196;SDS011;58918;51.652;4.864;2023-05-10T00:01:37;3.70;;;0.90;;
71196;SDS011;58918;51.652;4.864;2023-05-10T00:04:04;3.05;;;1.00;;
71196;SDS011;58918;51.652;4.864;2023-05-10T00:06:31;2.42;;;0.80;;
71196;SDS011;58918;51.652;4.864;2023-05-10T00:08:58;6.25;;;0.95;;
71196;SDS011;58918;51.652;4.864;2023-05-10T00:11:25;2.67;;;0.80;;
71196;SDS011;58918;51.652;4.864;2023-05-10T00:13:53;3.47;;;1.00;;
71196;SDS011;58918;51.652;4.864;2023-05-10T00:16:20;4.90;;;1.17;;
71196;SDS011;58918;51.652;4.864;2023-05-10T00:18:47;1.52;;;0.65;;
71196;SDS011;58918;51.652;4.864;2023-05-10T00:21:14;4.40;;;1.05;;
71196;SDS011;58918;51.652;4.864;2023-05-10T00:23:42;3.20;;;0.90;;
71196;SDS011;58918;51.652;4.864;2023-05-10T00:26:09;4.05;;;0.88;;
71196;SDS011;58918;51.652;4.864;2023-05-10T00:28:36;2.70;;;1.20;;
71196;SDS011;58918;51.652;4.864;2023-05-10T00:31:03;3.03;;;0.85;;
71196;SDS011;58918;51.652;4.864;2023-05-10T00:33:30;4.03;;;1.00;;
71196;SDS011;58918;51.652;4.864;2023-05-10T00:35:57;2.67;;;0.90;;
71196;SDS011;58918;51.652;4.864;2023-05-10T00:38:25;2.65;;;0.80;;
71196;SDS011;58918;51.652;4.864;2023-05-10T00:40:52;4.80;;;0.90;;
71196;SDS011;58918;51.652;4.864;2023-05-10T00:43:19;5.70;;;1.08;;
71196;SDS011;58918;51.652;4.864;2023-05-10T00:45:46;4.72;;;0.90;;
71196;SDS011;58918;51.652;4.864;2023-05-10T00:48:13;4.47;;;0.90;;
71196;SDS011;58918;51.652;4.864;2023-05-10T00:50:41;2.80;;;0.80;;
71196;SDS011;58918;51.652;4.864;2023-05-10T00:53:08;3.65;;;0.82;;
71196;SDS011;58918;51.652;4.864;2023-05-10T00:55:36;2.55;;;0.70;;
71196;SDS011;58918;51.652;4.864;2023-05-10T00:58:04;3.50;;;0.80;;
71196;SDS011;58918;51.652;4.864;2023-05-10T01:00:32;2.28;;;0.77;;
71196;SDS011;58918;51.652;4.864;2023-05-10T01:02:59;4.72;;;0.85;;
71196;SDS011;58918;51.652;4.864;2023-05-10T01:05:27;2.72;;;0.80;;
71196;SDS011;58918;51.652;4.864;2023-05-10T01:07:54;4.47;;;0.90;;
71196;SDS011;58918;51.652;4.864;2023-05-10T01:10:22;2.72;;;0.80;;
71196;SDS011;58918;51.652;4.864;2023-05-10T01:12:50;2.70;;;1.00;;
71196;SDS011;58918;51.652;4.864;2023-05-10T01:15:17;3.22;;;0.90;;
71196;SDS011;58918;51.652;4.864;2023-05-10T01:17:44;3.55;;;1.00;;
71196;SDS011;58918;51.652;4.864;2023-05-10T01:20:12;3.22;;;1.00;;
71196;SDS011;58918;51.652;4.864;2023-05-10T01:22:57;4.20;;;1.08;;
71196;SDS011;58918;51.652;4.864;2023-05-10T01:25:31;3.58;;;0.93;;
71196;SDS011;58918;51.652;4.864;2023-05-10T01:31:01;7.38;;;1.27;;
71196;SDS011;58918;51.652;4.864;2023-05-10T01:33:27;3.42;;;0.77;;
71196;SDS011;58918;51.652;4.864;2023-05-10T01:41:16;4.63;;;0.98;;
71196;SDS011;58918;51.652;4.864;2023-05-10T01:43:50;5.05;;;0.95;;
71196;SDS011;58918;51.652;4.864;2023-05-10T01:46:31;4.43;;;0.93;;
71196;SDS011;58918;51.652;4.864;2023-05-10T01:49:00;3.95;;;1.00;;
71196;SDS011;58918;51.652;4.864;2023-05-10T01:51:31;3.13;;;0.80;;
71196;SDS011;58918;51.652;4.864;2023-05-10T01:54:01;3.60;;;0.80;;
71196;SDS011;58918;51.652;4.864;2023-05-10T01:56:29;8.63;;;0.93;;
71196;SDS011;58918;51.652;4.864;2023-05-10T01:58:57;3.65;;;1.00;;
71196;SDS011;58918;51.652;4.864;2023-05-10T02:01:25;3.72;;;1.00;;
71196;SDS011;58918;51.652;4.864;2023-05-10T02:03:54;3.75;;;1.20;;
71196;SDS011;58918;51.652;4.864;2023-05-10T02:06:22;3.80;;;0.95;;
71196;SDS011;58918;51.652;4.864;2023-05-10T02:08:51;2.50;;;0.90;;
71196;SDS011;58918;51.652;4.864;2023-05-10T02:11:19;2.90;;;1.00;;
71196;SDS011;58918;51.652;4.864;2023-05-10T02:13:47;4.20;;;0.98;;
71196;SDS011;58918;51.652;4.864;2023-05-10T02:16:15;1.85;;;0.70;;
71196;SDS011;58918;51.652;4.864;2023-05-10T02:18:45;7.43;;;1.00;;
71196;SDS011;58918;51.652;4.864;2023-05-10T02:21:12;3.70;;;1.00;;
71196;SDS011;58918;51.652;4.864;2023-05-10T02:23:41;2.90;;;0.90;;
71196;SDS011;58918;51.652;4.864;2023-05-10T02:26:09;3.78;;;0.98;;
71196;SDS011;58918;51.652;4.864;2023-05-10T02:28:38;3.10;;;0.75;;
71196;SDS011;58918;51.652;4.864;2023-05-10T02:31:06;3.20;;;1.00;;
71196;SDS011;58918;51.652;4.864;2023-05-10T02:33:35;4.20;;;0.90;;
71196;SDS011;58918;51.652;4.864;2023-05-10T02:36:03;2.95;;;0.93;;
71196;SDS011;58918;51.652;4.864;2023-05-10T02:38:31;4.78;;;1.10;;
71196;SDS011;58918;51.652;4.864;2023-05-10T02:40:59;2.95;;;0.90;;
71196;SDS011;58918;51.652;4.864;2023-05-10T02:43:26;6.60;;;0.95;;
71196;SDS011;58918;51.652;4.864;2023-05-10T02:45:56;2.85;;;0.93;;
71196;SDS011;58918;51.652;4.864;2023-05-10T02:48:24;2.90;;;1.15;;
71196;SDS011;58918;51.652;4.864;2023-05-10T02:50:52;2.42;;;0.80;;
71196;SDS011;58918;51.652;4.864;2023-05-10T02:53:21;4.30;;;1.00;;
71196;SDS011;58918;51.652;4.864;2023-05-10T02:55:50;1.65;;;0.63;;
71196;SDS011;58918;51.652;4.864;2023-05-10T02:58:18;7.20;;;1.13;;
71196;SDS011;58918;51.652;4.864;2023-05-10T03:00:46;2.60;;;0.82;;
71196;SDS011;58918;51.652;4.864;2023-05-10T03:03:14;2.85;;;1.00;;
71196;SDS011;58918;51.652;4.864;2023-05-10T03:05:41;2.80;;;0.93;;
71196;SDS011;58918;51.652;4.864;2023-05-10T03:08:08;4.10;;;0.90;;
71196;SDS011;58918;51.652;4.864;2023-05-10T03:10:38;3.33;;;0.93;;
71196;SDS011;58918;51.652;4.864;2023-05-10T03:18:44;2.75;;;0.85;;
71196;SDS011;58918;51.652;4.864;2023-05-10T03:21:14;4.78;;;0.95;;
71196;SDS011;58918;51.652;4.864;2023-05-10T03:23:51;2.90;;;1.10;;
71196;SDS011;58918;51.652;4.864;2023-05-10T03:26:26;2.50;;;0.90;;
71196;SDS011;58918;51.652;4.864;2023-05-10T03:28:53;4.45;;;1.00;;
71196;SDS011;58918;51.652;4.864;2023-05-10T03:31:21;3.28;;;1.27;;
71196;SDS011;58918;51.652;4.864;2023-05-10T03:33:49;5.35;;;1.30;;
71196;SDS011;58918;51.652;4.864;2023-05-10T03:36:16;4.15;;;1.20;;
71196;SDS011;58918;51.652;4.864;2023-05-10T03:38:43;3.95;;;1.20;;
71196;SDS011;58918;51.652;4.864;2023-05-10T03:41:11;2.53;;;0.95;;
71196;SDS011;58918;51.652;4.864;2023-05-10T03:43:38;7.65;;;1.67;;
71196;SDS011;58918;51.652;4.864;2023-05-10T03:46:05;6.43;;;1.30;;
71196;SDS011;58918;51.652;4.864;2023-05-10T03:48:33;8.75;;;1.70;;
71196;SDS011;58918;51.652;4.864;2023-05-10T03:51:00;6.55;;;1.48;;
71196;SDS011;58918;51.652;4.864;2023-05-10T03:53:27;6.45;;;1.50;;
71196;SDS011;58918;51.652;4.864;2023-05-10T03:55:54;11.68;;;1.40;;
71196;SDS011;58918;51.652;4.864;2023-05-10T03:58:21;5.93;;;1.63;;
71196;SDS011;58918;51.652;4.864;2023-05-10T04:00:49;6.90;;;1.50;;
71196;SDS011;58918;51.652;4.864;2023-05-10T04:03:16;4.47;;;1.25;;
71196;SDS011;58918;51.652;4.864;2023-05-10T04:05:43;4.30;;;1.48;;
71196;SDS011;58918;51.652;4.864;2023-05-10T04:08:11;4.75;;;1.30;;
71196;SDS011;58918;51.652;4.864;2023-05-10T04:10:38;4.78;;;1.60;;
71196;SDS011;58918;51.652;4.864;2023-05-10T04:13:05;4.10;;;2.03;;
71196;SDS011;58918;51.652;4.864;2023-05-10T04:15:33;3.00;;;1.40;;
71196;SDS011;58918;51.652;4.864;2023-05-10T04:18:00;4.88;;;1.63;;
71196;SDS011;58918;51.652;4.864;2023-05-10T04:20:27;4.82;;;1.80;;
71196;SDS011;58918;51.652;4.864;2023-05-10T04:22:54;5.18;;;1.90;;
71196;SDS011;58918;51.652;4.864;2023-05-10T04:25:21;7.15;;;1.50;;
71196;SDS011;58918;51.652;4.864;2023-05-10T04:27:48;6.75;;;2.05;;
71196;SDS011;58918;51.652;4.864;2023-05-10T04:30:15;3.75;;;1.50;;
71196;SDS011;58918;51.652;4.864;2023-05-10T04:32:44;3.85;;;1.55;;
71196;SDS011;58918;51.652;4.864;2023-05-10T04:35:11;5.40;;;1.58;;
71196;SDS011;58918;51.652;4.864;2023-05-10T04:37:40;4.72;;;1.75;;
71196;SDS011;58918;51.652;4.864;2023-05-10T04:40:08;4.22;;;1.63;;
71196;SDS011;58918;51.652;4.864;2023-05-10T04:42:35;4.82;;;1.83;;
71196;SDS011;58918;51.652;4.864;2023-05-10T04:45:02;3.80;;;1.40;;
71196;SDS011;58918;51.652;4.864;2023-05-10T04:47:29;6.10;;;1.80;;
71196;SDS011;58918;51.652;4.864;2023-05-10T04:49:57;4.10;;;1.60;;
71196;SDS011;58918;51.652;4.864;2023-05-10T04:52:24;8.77;;;1.65;;
71196;SDS011;58918;51.652;4.864;2023-05-10T04:54:52;7.43;;;1.55;;
71196;SDS011;58918;51.652;4.864;2023-05-10T04:57:19;8.18;;;1.63;;
71196;SDS011;58918;51.652;4.864;2023-05-10T04:59:46;10.00;;;1.65;;
71196;SDS011;58918;51.652;4.864;2023-05-10T05:02:15;5.22;;;1.65;;
71196;SDS011;58918;51.652;4.864;2023-05-10T05:04:42;6.47;;;1.83;;
71196;SDS011;58918;51.652;4.864;2023-05-10T05:07:09;5.35;;;1.98;;
71196;SDS011;58918;51.652;4.864;2023-05-10T05:09:36;5.55;;;1.63;;
71196;SDS011;58918;51.652;4.864;2023-05-10T05:12:04;5.13;;;1.60;;
71196;SDS011;58918;51.652;4.864;2023-05-10T05:14:31;5.65;;;1.90;;
71196;SDS011;58918;51.652;4.864;2023-05-10T05:16:58;5.82;;;2.08;;
71196;SDS011;58918;51.652;4.864;2023-05-10T05:19:25;6.70;;;1.35;;
71196;SDS011;58918;51.652;4.864;2023-05-10T05:21:53;6.53;;;1.70;;
71196;SDS011;58918;51.652;4.864;2023-05-10T05:24:20;5.07;;;1.60;;
71196;SDS011;58918;51.652;4.864;2023-05-10T05:26:47;5.65;;;1.60;;
71196;SDS011;58918;51.652;4.864;2023-05-10T05:29:15;4.18;;;1.38;;
71196;SDS011;58918;51.652;4.864;2023-05-10T05:31:42;5.63;;;1.27;;
71196;SDS011;58918;51.652;4.864;2023-05-10T05:34:09;4.45;;;1.52;;
71196;SDS011;58918;51.652;4.864;2023-05-10T05:36:36;6.57;;;1.58;;
71196;SDS011;58918;51.652;4.864;2023-05-10T05:39:07;6.68;;;1.80;;
71196;SDS011;58918;51.652;4.864;2023-05-10T05:41:34;5.43;;;1.88;;
71196;SDS011;58918;51.652;4.864;2023-05-10T05:44:01;4.70;;;1.70;;
71196;SDS011;58918;51.652;4.864;2023-05-10T05:46:28;5.35;;;1.55;;
71196;SDS011;58918;51.652;4.864;2023-05-10T05:48:55;5.88;;;1.40;;
71196;SDS011;58918;51.652;4.864;2023-05-10T05:51:23;5.53;;;1.80;;
71196;SDS011;58918;51.652;4.864;2023-05-10T05:53:50;4.70;;;1.60;;
71196;SDS011;58918;51.652;4.864;2023-05-10T05:56:17;6.85;;;1.67;;
71196;SDS011;58918;51.652;4.864;2023-05-10T05:58:50;6.43;;;1.65;;
71196;SDS011;58918;51.652;4.864;2023-05-10T06:01:17;3.78;;;1.38;;
71196;SDS011;58918;51.652;4.864;2023-05-10T06:03:44;6.20;;;1.70;;
71196;SDS011;58918;51.652;4.864;2023-05-10T06:06:12;4.13;;;1.80;;
71196;SDS011;58918;51.652;4.864;2023-05-10T06:08:40;3.95;;;1.85;;
71196;SDS011;58918;51.652;4.864;2023-05-10T06:11:07;4.40;;;1.85;;
71196;SDS011;58918;51.652;4.864;2023-05-10T06:13:34;6.10;;;1.80;;
71196;SDS011;58918;51.652;4.864;2023-05-10T06:16:02;3.15;;;1.52;;
71196;SDS011;58918;51.652;4.864;2023-05-10T06:18:29;4.50;;;1.58;;
71196;SDS011;58918;51.652;4.864;2023-05-10T06:20:56;5.03;;;1.77;;
71196;SDS011;58918;51.652;4.864;2023-05-10T06:23:24;5.40;;;2.00;;
71196;SDS011;58918;51.652;4.864;2023-05-10T06:25:51;5.35;;;1.80;;
71196;SDS011;58918;51.652;4.864;2023-05-10T06:28:18;5.47;;;1.60;;
71196;SDS011;58918;51.652;4.864;2023-05-10T06:30:46;4.32;;;1.80;;
71196;SDS011;58918;51.652;4.864;2023-05-10T06:33:13;4.13;;;1.55;;
71196;SDS011;58918;51.652;4.864;2023-05-10T06:35:42;6.75;;;1.70;;
71196;SDS011;58918;51.652;4.864;2023-05-10T06:38:09;4.70;;;1.70;;
71196;SDS011;58918;51.652;4.864;2023-05-10T06:40:36;4.65;;;1.60;;
71196;SDS011;58918;51.652;4.864;2023-05-10T06:43:03;5.88;;;1.65;;
71196;SDS011;58918;51.652;4.864;2023-05-10T06:45:31;4.95;;;1.60;;
71196;SDS011;58918;51.652;4.864;2023-05-10T06:47:58;4.75;;;1.60;;
71196;SDS011;58918;51.652;4.864;2023-05-10T06:50:26;4.05;;;1.55;;
71196;SDS011;58918;51.652;4.864;2023-05-10T06:52:53;4.40;;;1.63;;
71196;SDS011;58918;51.652;4.864;2023-05-10T06:55:21;4.72;;;1.83;;
71196;SDS011;58918;51.652;4.864;2023-05-10T06:57:48;4.03;;;1.50;;
71196;SDS011;58918;51.652;4.864;2023-05-10T07:00:17;4.07;;;1.50;;
71196;SDS011;58918;51.652;4.864;2023-05-10T07:05:14;3.50;;;1.52;;
71196;SDS011;58918;51.652;4.864;2023-05-10T07:07:42;3.83;;;1.70;;
71196;SDS011;58918;51.652;4.864;2023-05-10T07:10:10;3.30;;;1.58;;
71196;SDS011;58918;51.652;4.864;2023-05-10T07:12:37;5.35;;;1.58;;
71196;SDS011;58918;51.652;4.864;2023-05-10T07:15:05;4.28;;;1.60;;
71196;SDS011;58918;51.652;4.864;2023-05-10T07:17:32;3.78;;;1.40;;
71196;SDS011;58918;51.652;4.864;2023-05-10T07:19:59;4.55;;;1.60;;
71196;SDS011;58918;51.652;4.864;2023-05-10T07:22:27;3.15;;;1.40;;
71196;SDS011;58918;51.652;4.864;2023-05-10T07:24:54;4.97;;;1.70;;
71196;SDS011;58918;51.652;4.864;2023-05-10T07:27:21;3.72;;;1.45;;
71196;SDS011;58918;51.652;4.864;2023-05-10T07:29:49;4.13;;;1.42;;
71196;SDS011;58918;51.652;4.864;2023-05-10T07:32:16;3.90;;;1.48;;
71196;SDS011;58918;51.652;4.864;2023-05-10T07:34:43;3.70;;;1.40;;
71196;SDS011;58918;51.652;4.864;2023-05-10T07:37:10;3.28;;;1.30;;
71196;SDS011;58918;51.652;4.864;2023-05-10T07:39:38;5.10;;;1.55;;
71196;SDS011;58918;51.652;4.864;2023-05-10T07:42:05;3.30;;;1.40;;
71196;SDS011;58918;51.652;4.864;2023-05-10T07:44:32;4.30;;;1.63;;
71196;SDS011;58918;51.652;4.864;2023-05-10T07:46:59;5.38;;;1.35;;
71196;SDS011;58918;51.652;4.864;2023-05-10T07:49:26;3.20;;;1.40;;
71196;SDS011;58918;51.652;4.864;2023-05-10T07:51:53;3.70;;;1.48;;
71196;SDS011;58918;51.652;4.864;2023-05-10T07:54:21;3.63;;;1.33;;
71196;SDS011;58918;51.652;4.864;2023-05-10T07:56:48;3.72;;;1.58;;
71196;SDS011;58918;51.652;4.864;2023-05-10T07:59:16;4.47;;;1.50;;
71196;SDS011;58918;51.652;4.864;2023-05-10T08:01:43;4.63;;;1.40;;
71196;SDS011;58918;51.652;4.864;2023-05-10T08:04:11;4.28;;;1.85;;
71196;SDS011;58918;51.652;4.864;2023-05-10T08:06:39;3.00;;;1.20;;
71196;SDS011;58918;51.652;4.864;2023-05-10T08:09:07;3.35;;;1.17;;
71196;SDS011;58918;51.652;4.864;2023-05-10T08:11:34;3.70;;;1.40;;
71196;SDS011;58918;51.652;4.864;2023-05-10T08:14:01;4.15;;;1.30;;
71196;SDS011;58918;51.652;4.864;2023-05-10T08:16:28;3.35;;;1.27;;
71196;SDS011;58918;51.652;4.864;2023-05-10T08:18:56;6.20;;;1.48;;
71196;SDS011;58918;51.652;4.864;2023-05-10T08:21:23;3.35;;;1.23;;
71196;SDS011;58918;51.652;4.864;2023-05-10T08:23:50;3.33;;;1.02;;
71196;SDS011;58918;51.652;4.864;2023-05-10T08:26:17;3.15;;;1.20;;
71196;SDS011;58918;51.652;4.864;2023-05-10T08:28:44;2.75;;;1.05;;
71196;SDS011;58918;51.652;4.864;2023-05-10T08:31:12;4.57;;;1.38;;
71196;SDS011;58918;51.652;4.864;2023-05-10T08:33:39;4.25;;;1.33;;
71196;SDS011;58918;51.652;4.864;2023-05-10T08:36:09;3.42;;;1.10;;
71196;SDS011;58918;51.652;4.864;2023-05-10T08:38:37;3.25;;;1.13;;
71196;SDS011;58918;51.652;4.864;2023-05-10T08:41:06;3.78;;;1.10;;
71196;SDS011;58918;51.652;4.864;2023-05-10T08:43:33;3.28;;;1.30;;
71196;SDS011;58918;51.652;4.864;2023-05-10T08:46:02;4.03;;;1.30;;
71196;SDS011;58918;51.652;4.864;2023-05-10T08:48:32;3.47;;;1.42;;
71196;SDS011;58918;51.652;4.864;2023-05-10T08:51:00;3.38;;;1.13;;
71196;SDS011;58918;51.652;4.864;2023-05-10T08:53:28;5.05;;;1.20;;
71196;SDS011;58918;51.652;4.864;2023-05-10T08:55:56;5.30;;;1.45;;
71196;SDS011;58918;51.652;4.864;2023-05-10T08:58:23;3.47;;;1.15;;
71196;SDS011;58918;51.652;4.864;2023-05-10T09:00:51;3.63;;;1.00;;
71196;SDS011;58918;51.652;4.864;2023-05-10T09:03:18;4.38;;;1.27;;
71196;SDS011;58918;51.652;4.864;2023-05-10T09:05:46;2.85;;;1.15;;
71196;SDS011;58918;51.652;4.864;2023-05-10T09:08:13;4.00;;;1.13;;
71196;SDS011;58918;51.652;4.864;2023-05-10T09:10:45;5.00;;;1.17;;
71196;SDS011;58918;51.652;4.864;2023-05-10T09:13:14;3.38;;;0.95;;
71196;SDS011;58918;51.652;4.864;2023-05-10T09:15:43;2.70;;;1.20;;
71196;SDS011;58918;51.652;4.864;2023-05-10T09:18:10;2.70;;;1.00;;
71196;SDS011;58918;51.652;4.864;2023-05-10T09:20:37;2.90;;;1.20;;
71196;SDS011;58918;51.652;4.864;2023-05-10T09:23:05;2.88;;;1.08;;
71196;SDS011;58918;51.652;4.864;2023-05-10T09:25:32;3.45;;;1.20;;
71196;SDS011;58918;51.652;4.864;2023-05-10T09:27:59;2.53;;;1.02;;
71196;SDS011;58918;51.652;4.864;2023-05-10T09:30:27;3.95;;;1.35;;
71196;SDS011;58918;51.652;4.864;2023-05-10T09:32:55;3.10;;;1.20;;
71196;SDS011;58918;51.652;4.864;2023-05-10T09:35:24;2.65;;;1.17;;
71196;SDS011;58918;51.652;4.864;2023-05-10T09:37:55;3.58;;;1.15;;
71196;SDS011;58918;51.652;4.864;2023-05-10T09:40:23;3.40;;;1.25;;
71196;SDS011;58918;51.652;4.864;2023-05-10T09:42:54;3.85;;;1.17;;
71196;SDS011;58918;51.652;4.864;2023-05-10T09:45:23;3.30;;;1.15;;
71196;SDS011;58918;51.652;4.864;2023-05-10T09:50:18;2.83;;;1.13;;
71196;SDS011;58918;51.652;4.864;2023-05-10T09:52:47;3.15;;;1.17;;
71196;SDS011;58918;51.652;4.864;2023-05-10T09:55:15;2.72;;;1.00;;
71196;SDS011;58918;51.652;4.864;2023-05-10T09:57:42;3.28;;;1.30;;
71196;SDS011;58918;51.652;4.864;2023-05-10T10:00:10;3.20;;;1.17;;
71196;SDS011;58918;51.652;4.864;2023-05-10T10:02:38;3.65;;;1.13;;
71196;SDS011;58918;51.652;4.864;2023-05-10T10:05:06;4.10;;;1.10;;
71196;SDS011;58918;51.652;4.864;2023-05-10T10:07:34;3.97;;;1.08;;
71196;SDS011;58918;51.652;4.864;2023-05-10T10:10:02;3.58;;;1.08;;
71196;SDS011;58918;51.652;4.864;2023-05-10T10:12:30;3.08;;;1.08;;
71196;SDS011;58918;51.652;4.864;2023-05-10T10:14:58;3.22;;;1.23;;
71196;SDS011;58918;51.652;4.864;2023-05-10T10:17:27;2.90;;;1.13;;
71196;SDS011;58918;51.652;4.864;2023-05-10T10:19:55;3.15;;;1.30;;
71196;SDS011;58918;51.652;4.864;2023-05-10T10:22:24;2.80;;;1.00;;
71196;SDS011;58918;51.652;4.864;2023-05-10T10:24:51;2.95;;;0.98;;
71196;SDS011;58918;51.652;4.864;2023-05-10T10:35:12;3.80;;;1.00;;
71196;SDS011;58918;51.652;4.864;2023-05-10T10:37:47;3.10;;;1.35;;
71196;SDS011;58918;51.652;4.864;2023-05-10T10:40:30;2.80;;;1.20;;
71196;SDS011;58918;51.652;4.864;2023-05-10T10:46:08;2.72;;;0.95;;
71196;SDS011;58918;51.652;4.864;2023-05-10T10:48:33;3.10;;;1.20;;
71196;SDS011;58918;51.652;4.864;2023-05-10T10:51:00;2.70;;;0.82;;
71196;SDS011;58918;51.652;4.864;2023-05-10T10:53:27;1.92;;;0.80;;
71196;SDS011;58918;51.652;4.864;2023-05-10T10:56:04;2.88;;;1.02;;
71196;SDS011;58918;51.652;4.864;2023-05-10T10:58:33;2.40;;;0.90;;
71196;SDS011;58918;51.652;4.864;2023-05-10T11:01:14;2.72;;;1.02;;
71196;SDS011;58918;51.652;4.864;2023-05-10T11:06:43;3.25;;;1.05;;
71196;SDS011;58918;51.652;4.864;2023-05-10T11:09:11;2.60;;;0.80;;
71196;SDS011;58918;51.652;4.864;2023-05-10T11:11:48;2.70;;;1.17;;
71196;SDS011;58918;51.652;4.864;2023-05-10T11:14:17;2.67;;;0.93;;
71196;SDS011;58918;51.652;4.864;2023-05-10T11:16:46;2.38;;;0.80;;
71196;SDS011;58918;51.652;4.864;2023-05-10T11:19:15;3.30;;;0.90;;
71196;SDS011;58918;51.652;4.864;2023-05-10T11:24:13;2.25;;;0.80;;
71196;SDS011;58918;51.652;4.864;2023-05-10T11:26:41;2.70;;;1.00;;
71196;SDS011;58918;51.652;4.864;2023-05-10T11:29:08;2.90;;;1.02;;
71196;SDS011;58918;51.652;4.864;2023-05-10T11:31:41;1.92;;;0.75;;
71196;SDS011;58918;51.652;4.864;2023-05-10T11:34:09;2.45;;;0.85;;
71196;SDS011;58918;51.652;4.864;2023-05-10T11:36:37;2.35;;;0.80;;
71196;SDS011;58918;51.652;4.864;2023-05-10T11:39:04;2.17;;;0.80;;
71196;SDS011;58918;51.652;4.864;2023-05-10T11:41:32;2.25;;;0.80;;
71196;SDS011;58918;51.652;4.864;2023-05-10T11:43:59;3.45;;;1.13;;
71196;SDS011;58918;51.652;4.864;2023-05-10T11:46:27;2.78;;;0.93;;
71196;SDS011;58918;51.652;4.864;2023-05-10T11:48:59;2.67;;;1.05;;
71196;SDS011;58918;51.652;4.864;2023-05-10T11:51:27;3.78;;;1.02;;
71196;SDS011;58918;51.652;4.864;2023-05-10T11:53:55;2.75;;;1.00;;
71196;SDS011;58918;51.652;4.864;2023-05-10T11:56:23;2.45;;;0.80;;
71196;SDS011;58918;51.652;4.864;2023-05-10T11:58:53;2.00;;;0.80;;
71196;SDS011;58918;51.652;4.864;2023-05-10T12:01:22;2.38;;;0.77;;
71196;SDS011;58918;51.652;4.864;2023-05-10T12:03:50;2.65;;;1.00;;
71196;SDS011;58918;51.652;4.864;2023-05-10T12:06:18;2.40;;;1.00;;
71196;SDS011;58918;51.652;4.864;2023-05-10T12:08:46;2.25;;;0.90;;
71196;SDS011;58918;51.652;4.864;2023-05-10T12:11:13;2.55;;;1.00;;
71196;SDS011;58918;51.652;4.864;2023-05-10T12:13:41;2.85;;;0.90;;
71196;SDS011;58918;51.652;4.864;2023-05-10T12:16:12;2.42;;;0.80;;
71196;SDS011;58918;51.652;4.864;2023-05-10T12:18:40;2.25;;;0.82;;
71196;SDS011;58918;51.652;4.864;2023-05-10T12:21:09;2.28;;;0.95;;
71196;SDS011;58918;51.652;4.864;2023-05-10T12:26:05;2.03;;;0.77;;
71196;SDS011;58918;51.652;4.864;2023-05-10T12:28:32;2.88;;;0.90;;
71196;SDS011;58918;51.652;4.864;2023-05-10T12:31:01;3.60;;;0.95;;
71196;SDS011;58918;51.652;4.864;2023-05-10T12:33:38;1.92;;;0.80;;
71196;SDS011;58918;51.652;4.864;2023-05-10T12:36:05;2.88;;;0.70;;
71196;SDS011;58918;51.652;4.864;2023-05-10T12:41:00;2.60;;;0.80;;
71196;SDS011;58918;51.652;4.864;2023-05-10T12:43:28;2.53;;;0.90;;
71196;SDS011;58918;51.652;4.864;2023-05-10T12:45:55;2.55;;;0.80;;
71196;SDS011;58918;51.652;4.864;2023-05-10T12:48:23;2.63;;;0.90;;
71196;SDS011;58918;51.652;4.864;2023-05-10T12:50:50;3.25;;;0.82;;
71196;SDS011;58918;51.652;4.864;2023-05-10T12:53:17;2.80;;;1.00;;
71196;SDS011;58918;51.652;4.864;2023-05-10T12:55:44;2.00;;;0.70;;
71196;SDS011;58918;51.652;4.864;2023-05-10T12:58:12;2.53;;;0.82;;
71196;SDS011;58918;51.652;4.864;2023-05-10T13:00:59;2.83;;;0.80;;
71196;SDS011;58918;51.652;4.864;2023-05-10T13:03:26;2.45;;;0.88;;
71196;SDS011;58918;51.652;4.864;2023-05-10T13:05:53;2.40;;;0.88;;
71196;SDS011;58918;51.652;4.864;2023-05-10T13:08:21;2.80;;;0.90;;
71196;SDS011;58918;51.652;4.864;2023-05-10T13:10:48;2.47;;;0.90;;
71196;SDS011;58918;51.652;4.864;2023-05-10T13:13:15;2.97;;;1.00;;
71196;SDS011;58918;51.652;4.864;2023-05-10T13:15:42;1.85;;;0.70;;
71196;SDS011;58918;51.652;4.864;2023-05-10T13:18:09;2.45;;;0.80;;
71196;SDS011;58918;51.652;4.864;2023-05-10T13:20:37;2.03;;;0.70;;
71196;SDS011;58918;51.652;4.864;2023-05-10T13:23:04;2.45;;;0.90;;
71196;SDS011;58918;51.652;4.864;2023-05-10T13:25:31;2.10;;;0.70;;
71196;SDS011;58918;51.652;4.864;2023-05-10T13:30:27;2.65;;;0.65;;
71196;SDS011;58918;51.652;4.864;2023-05-10T13:32:55;2.30;;;0.90;;
71196;SDS011;58918;51.652;4.864;2023-05-10T13:35:22;2.80;;;0.88;;
71196;SDS011;58918;51.652;4.864;2023-05-10T13:37:49;2.47;;;0.80;;
71196;SDS011;58918;51.652;4.864;2023-05-10T13:40:16;1.45;;;0.70;;
71196;SDS011;58918;51.652;4.864;2023-05-10T13:42:44;2.70;;;0.93;;
71196;SDS011;58918;51.652;4.864;2023-05-10T13:45:12;2.25;;;0.80;;
71196;SDS011;58918;51.652;4.864;2023-05-10T13:47:39;1.65;;;0.63;;
71196;SDS011;58918;51.652;4.864;2023-05-10T13:50:07;2.42;;;0.80;;
71196;SDS011;58918;51.652;4.864;2023-05-10T13:52:34;2.20;;;0.80;;
71196;SDS011;58918;51.652;4.864;2023-05-10T13:55:01;2.03;;;0.70;;
71196;SDS011;58918;51.652;4.864;2023-05-10T13:57:29;2.33;;;0.82;;
71196;SDS011;58918;51.652;4.864;2023-05-10T13:59:56;2.15;;;0.80;;
71196;SDS011;58918;51.652;4.864;2023-05-10T14:02:23;3.35;;;0.80;;
71196;SDS011;58918;51.652;4.864;2023-05-10T14:04:51;2.25;;;0.77;;
71196;SDS011;58918;51.652;4.864;2023-05-10T14:07:20;2.28;;;0.73;;
71196;SDS011;58918;51.652;4.864;2023-05-10T14:09:50;2.30;;;0.68;;
71196;SDS011;58918;51.652;4.864;2023-05-10T14:12:17;1.80;;;0.70;;
71196;SDS011;58918;51.652;4.864;2023-05-10T14:14:45;2.33;;;0.80;;
71196;SDS011;58918;51.652;4.864;2023-05-10T14:17:12;1.92;;;0.70;;
71196;SDS011;58918;51.652;4.864;2023-05-10T14:19:39;2.03;;;0.70;;
71196;SDS011;58918;51.652;4.864;2023-05-10T14:22:06;1.88;;;0.68;;
71196;SDS011;58918;51.652;4.864;2023-05-10T14:24:33;3.83;;;0.93;;
71196;SDS011;58918;51.652;4.864;2023-05-10T14:27:00;2.47;;;0.95;;
71196;SDS011;58918;51.652;4.864;2023-05-10T14:29:27;2.00;;;0.70;;
71196;SDS011;58918;51.652;4.864;2023-05-10T14:31:55;2.10;;;0.75;;
71196;SDS011;58918;51.652;4.864;2023-05-10T14:34:22;2.38;;;0.70;;
71196;SDS011;58918;51.652;4.864;2023-05-10T14:36:49;2.42;;;0.85;;
71196;SDS011;58918;51.652;4.864;2023-05-10T14:39:19;1.95;;;0.70;;
71196;SDS011;58918;51.652;4.864;2023-05-10T14:41:46;1.50;;;0.60;;
71196;SDS011;58918;51.652;4.864;2023-05-10T14:44:13;2.40;;;0.75;;
71196;SDS011;58918;51.652;4.864;2023-05-10T14:46:41;2.78;;;0.80;;
71196;SDS011;58918;51.652;4.864;2023-05-10T14:49:08;2.42;;;0.80;;
71196;SDS011;58918;51.652;4.864;2023-05-10T14:51:35;2.25;;;0.82;;
71196;SDS011;58918;51.652;4.864;2023-05-10T14:54:03;2.30;;;0.93;;
71196;SDS011;58918;51.652;4.864;2023-05-10T14:56:31;2.08;;;0.85;;
71196;SDS011;58918;51.652;4.864;2023-05-10T14:58:58;2.30;;;0.70;;
71196;SDS011;58918;51.652;4.864;2023-05-10T15:01:26;1.65;;;0.60;;
71196;SDS011;58918;51.652;4.864;2023-05-10T15:03:54;2.33;;;0.73;;
71196;SDS011;58918;51.652;4.864;2023-05-10T15:06:30;2.00;;;0.63;;
71196;SDS011;58918;51.652;4.864;2023-05-10T15:08:57;2.42;;;0.80;;
71196;SDS011;58918;51.652;4.864;2023-05-10T15:11:25;1.80;;;0.70;;
71196;SDS011;58918;51.652;4.864;2023-05-10T15:13:52;2.88;;;0.73;;
71196;SDS011;58918;51.652;4.864;2023-05-10T15:16:19;1.95;;;0.75;;
71196;SDS011;58918;51.652;4.864;2023-05-10T15:18:46;1.95;;;0.70;;
71196;SDS011;58918;51.652;4.864;2023-05-10T15:21:14;2.05;;;0.70;;
71196;SDS011;58918;51.652;4.864;2023-05-10T15:23:41;2.00;;;0.73;;
71196;SDS011;58918;51.652;4.864;2023-05-10T15:26:08;2.00;;;0.68;;
71196;SDS011;58918;51.652;4.864;2023-05-10T15:28:35;2.53;;;1.05;;
71196;SDS011;58918;51.652;4.864;2023-05-10T15:31:03;2.35;;;0.77;;
71196;SDS011;58918;51.652;4.864;2023-05-10T15:33:30;2.90;;;0.82;;
71196;SDS011;58918;51.652;4.864;2023-05-10T15:35:57;1.88;;;0.63;;